Latest Weather Observations for Parawa West

IDS60801

Issued at 1:31 pm CST Friday 29 July 2016 (issued every 30 minutes, with the page automatically refreshed every 10 minutes)

About weather observations | Map of weather stations | Latest weather observations for SA | Other Formats
Station Details ID: 023875 Name: SECOND VALLEY FOREST AWS Lat: -35.57 Lon: 138.29 Height: 341.0 m
Data from the previous 72 hours. | See also: Recent months at Parawa West
Date/Time
CST
Temp
°C
App
Temp
°C
Dew
Point
°C
Rel
Hum
%
Delta-T
°C
Wind Press
QNH
hPa
Press
MSL
hPa
Rain since
9am
mm
Dir  Spd
km/h
Gust
km/h
Spd
kts
Gust
kts
29/01:30pm 9.4 7.1 8.9 97 0.2 NW 11 20 6 11 1022.6 1023.0 -
29/11:00am 9.1 5.7 9.1 100 0.0 NW 17 22 9 12 1024.5 1024.9 0.0
29/10:30am 9.0 5.6 9.0 100 0.0 NW 17 24 9 13 1024.5 1024.9 0.0
29/10:00am 9.0 5.6 9.0 100 0.0 NW 17 26 9 14 1024.5 1024.9 0.0
29/09:30am 8.7 5.2 8.7 100 0.0 NW 17 32 9 17 1024.2 1024.6 0.0
29/09:00am 8.7 5.6 8.7 100 0.0 NW 15 26 8 14 1024.4 1024.8 0.6
29/08:30am 8.7 5.2 8.7 100 0.0 NW 17 24 9 13 1024.3 1024.7 0.6
29/08:00am 8.5 4.9 8.5 100 0.0 NW 17 30 9 16 1024.1 1024.5 0.6
29/07:30am 8.3 4.7 8.3 100 0.0 NW 17 26 9 14 1024.3 1024.7 0.6
29/07:00am 8.3 4.7 8.3 100 0.0 NNW 17 28 9 15 1023.9 1024.3 0.6
29/06:30am 8.4 4.8 8.4 100 0.0 NW 17 28 9 15 1023.6 1023.9 0.6
29/06:00am 8.6 4.1 8.6 100 0.0 NNW 22 35 12 19 1023.0 1023.4 0.6
29/05:30am 8.6 3.3 8.6 100 0.0 NNW 26 41 14 22 1022.8 1023.2 0.6
29/05:00am 8.5 4.0 8.5 100 0.0 NNW 22 32 12 17 1022.5 1022.9 0.6
29/04:30am 8.7 4.2 8.7 100 0.0 NNW 22 35 12 19 1022.6 1023.0 0.6
29/04:00am 8.9 4.5 8.9 100 0.0 NW 22 32 12 17 1022.9 1023.3 0.6
29/03:30am 8.8 4.4 8.8 100 0.0 NNW 22 33 12 18 1022.7 1023.1 0.6
29/03:00am 8.7 4.2 8.7 100 0.0 NNW 22 33 12 18 1023.2 1023.6 0.6
29/02:30am 8.8 4.7 8.8 100 0.0 NNW 20 33 11 18 1023.5 1023.8 0.6
29/02:00am 8.7 3.9 8.7 100 0.0 NNW 24 39 13 21 1023.9 1024.3 0.6
29/01:30am 8.8 4.4 8.8 100 0.0 NW 22 41 12 22 1023.9 1024.3 0.6
29/01:00am 8.9 3.7 8.9 100 0.0 NW 26 41 14 22 1023.9 1024.3 0.6
29/12:30am 8.8 4.7 8.8 100 0.0 NW 20 35 11 19 1024.1 1024.5 0.4
29/12:00am 8.9 4.1 8.9 100 0.0 NW 24 35 13 19 1024.2 1024.6 0.4
 
Date/Time
CST
Temp
°C
App
Temp
°C
Dew
Point
°C
Rel
Hum
%
Delta-T
°C
Wind Press
QNH
hPa
Press
MSL
hPa
Rain since
9am
mm
Dir  Spd
km/h
Gust
km/h
Spd
kts
Gust
kts
28/11:30pm 9.1 4.7 9.1 100 0.0 NW 22 37 12 20 1024.5 1024.9 0.4
28/11:00pm 9.1 4.7 9.1 100 0.0 NW 22 33 12 18 1024.7 1025.1 0.2
28/10:30pm 9.1 4.7 9.1 100 0.0 NW 22 33 12 18 1025.1 1025.5 0.2
28/10:00pm 9.0 3.8 8.9 99 0.0 NW 26 43 14 23 1024.7 1025.1 0.2
28/09:30pm 9.2 4.8 8.9 98 0.1 NW 22 33 12 18 1024.8 1025.2 0.0
28/09:00pm 9.1 5.1 9.0 99 0.0 NNW 20 32 11 17 1024.9 1025.3 0.0
28/08:30pm 9.1 5.0 8.8 98 0.1 NW 20 30 11 16 1025.2 1025.6 0.0
28/08:00pm 9.0 5.5 8.9 99 0.0 NNW 17 24 9 13 1025.4 1025.8 0.0
28/07:30pm 9.0 5.1 8.7 98 0.1 NW 19 28 10 15 1025.7 1026.1 0.0
28/07:00pm 9.0 5.1 8.6 97 0.2 NW 19 33 10 18 1025.7 1026.1 0.0
28/06:30pm 9.4 5.8 8.3 93 0.5 NW 17 30 9 16 1025.7 1026.1 0.0
28/06:00pm 9.8 5.9 8.6 92 0.6 NW 19 32 10 17 1025.5 1025.9 0.0
28/05:30pm 9.7 5.8 8.6 93 0.5 WNW 19 30 10 16 1025.5 1025.9 0.0
28/05:00pm 10.0 5.9 8.8 92 0.6 WNW 20 32 11 17 1025.5 1025.9 0.0
28/04:30pm 10.3 6.3 8.9 91 0.7 WNW 20 32 11 17 1025.6 1026.0 0.0
28/04:00pm 10.1 6.4 9.3 95 0.4 NW 19 28 10 15 1025.4 1025.8 0.0
28/03:30pm 10.2 7.2 9.3 94 0.5 NNW 15 28 8 15 1025.5 1025.9 0.0
28/03:00pm 10.1 6.1 9.2 94 0.5 NNW 20 32 11 17 1025.4 1025.8 0.0
28/02:30pm 10.3 5.9 9.1 92 0.6 NNW 22 33 12 18 1025.4 1025.8 0.0
28/02:00pm 10.9 7.1 9.2 89 0.9 NNW 19 30 10 16 1025.5 1025.9 0.0
28/01:30pm 10.5 6.7 9.1 91 0.7 NW 19 28 10 15 1025.9 1026.3 0.0
28/01:00pm 11.4 7.4 8.3 81 1.6 NW 19 33 10 18 1026.1 1026.6 0.0
28/12:30pm 11.0 6.8 8.4 84 1.3 NW 20 32 11 17 1026.3 1026.8 0.0
28/12:00pm 11.3 7.6 9.4 88 1.0 NW 19 30 10 16 1026.7 1027.1 0.0
28/11:30am 10.5 6.5 8.4 87 1.0 NW 19 32 10 17 1027.1 1027.5 0.0
28/11:00am 10.9 5.9 6.5 74 2.1 NW 22 35 12 19 1027.3 1027.7 0.0
28/10:30am 10.3 6.1 7.4 82 1.4 WNW 19 24 10 13 1027.7 1028.1 0.0
28/10:00am 9.9 6.9 7.7 86 1.1 WNW 13 17 7 9 1027.6 1028.0 0.0
28/09:30am 9.8 6.2 6.9 82 1.4 WNW 15 22 8 12 1027.7 1028.1 0.0
28/09:00am 9.4 6.2 6.8 84 1.2 WNW 13 24 7 13 1027.6 1028.0 0.6
28/08:30am 9.1 6.2 6.7 85 1.1 W 11 17 6 9 1027.5 1027.9 0.6
28/08:00am 9.1 5.8 6.4 83 1.3 W 13 20 7 11 1027.3 1027.7 0.6
28/07:30am 9.1 5.5 6.7 85 1.1 W 15 20 8 11 1027.1 1027.5 0.6
28/07:00am 9.0 5.7 6.6 85 1.1 WNW 13 20 7 11 1026.8 1027.2 0.4
28/06:30am 8.8 6.0 6.8 87 0.9 W 11 15 6 8 1026.4 1026.9 0.4
28/06:00am 8.9 6.0 6.7 86 1.0 WNW 11 22 6 12 1026.1 1026.6 0.4
28/05:30am 8.8 4.9 7.1 89 0.8 W 17 26 9 14 1026.1 1026.6 0.4
28/05:00am 8.7 6.2 8.4 98 0.1 WNW 11 17 6 9 1026.0 1026.4 0.4
28/04:30am 8.7 6.2 8.4 98 0.1 WNW 11 15 6 8 1026.0 1026.4 0.4
28/04:00am 8.6 6.6 8.5 99 0.0 WNW 9 13 5 7 1026.0 1026.4 0.4
28/03:30am 8.5 5.7 8.4 99 0.0 WNW 13 19 7 10 1025.9 1026.3 0.4
28/03:00am 8.5 4.9 8.4 99 0.0 W 17 24 9 13 1025.9 1026.3 0.4
28/02:30am 8.5 5.3 8.4 99 0.0 W 15 24 8 13 1026.0 1026.4 0.4
28/02:00am 8.4 5.1 8.1 98 0.1 W 15 24 8 13 1026.1 1026.6 0.2
28/01:30am 8.2 4.9 7.9 98 0.1 W 15 24 8 13 1026.1 1026.6 0.2
28/01:00am 8.3 5.0 7.9 97 0.2 W 15 20 8 11 1026.0 1026.4 0.2
28/12:30am 8.7 4.8 7.2 90 0.7 W 17 26 9 14 1025.9 1026.3 0.0
28/12:00am 9.0 6.1 6.6 85 1.1 WNW 11 17 6 9 1025.7 1026.1 0.0
 
Date/Time
CST
Temp
°C
App
Temp
°C
Dew
Point
°C
Rel
Hum
%
Delta-T
°C
Wind Press
QNH
hPa
Press
MSL
hPa
Rain since
9am
mm
Dir  Spd
km/h
Gust
km/h
Spd
kts
Gust
kts
27/11:30pm 8.8 6.0 6.8 87 0.9 WNW 11 15 6 8 1025.8 1026.2 0.0
27/11:00pm 9.1 5.1 6.7 85 1.1 WNW 17 24 9 13 1025.8 1026.2 0.0
27/10:30pm 9.0 6.1 6.3 83 1.3 WNW 11 17 6 9 1026.0 1026.4 0.0
27/10:00pm 9.1 5.7 6.0 81 1.4 WNW 13 20 7 11 1026.0 1026.4 0.0
27/09:30pm 9.0 5.6 5.7 80 1.5 W 13 19 7 10 1026.2 1026.7 0.0
27/09:00pm 9.0 5.5 5.6 79 1.6 W 13 17 7 9 1026.1 1026.6 0.0
27/08:30pm 9.0 5.6 5.7 80 1.5 W 13 22 7 12 1026.1 1026.6 0.0
27/08:00pm 9.2 6.1 5.4 77 1.8 WNW 11 17 6 9 1026.0 1026.4 0.0
27/07:30pm 9.2 6.1 5.4 77 1.7 WNW 11 19 6 10 1025.8 1026.2 0.0
27/07:00pm 8.8 6.7 6.6 86 1.0 WNW 7 11 4 6 1025.6 1026.0 0.0
27/06:30pm 8.6 6.1 6.6 87 0.9 WNW 9 15 5 8 1025.4 1025.8 0.0
27/06:00pm 8.8 6.5 5.9 82 1.3 W 7 9 4 5 1025.1 1025.5 0.0
27/05:30pm 8.9 6.8 5.8 81 1.4 W 6 9 3 5 1024.9 1025.3 0.0
27/05:00pm 9.3 7.0 5.9 79 1.6 W 7 13 4 7 1024.6 1025.0 0.0
27/04:30pm 9.6 6.4 5.2 74 2.0 W 11 17 6 9 1024.5 1024.9 0.0
27/04:00pm 9.9 5.9 5.1 72 2.2 W 15 20 8 11 1024.3 1024.7 0.0
27/03:30pm 10.1 5.3 4.9 70 2.4 WSW 19 26 10 14 1023.9 1024.3 0.0
27/03:00pm 10.2 5.4 5.4 72 2.2 W 20 32 11 17 1023.7 1024.1 0.0
27/02:30pm 9.9 5.7 5.9 76 1.9 WSW 17 26 9 14 1023.5 1023.8 0.0
27/02:00pm 10.0 6.0 4.8 70 2.4 WSW 15 24 8 13 1023.3 1023.7 0.0
27/01:30pm 9.7 5.5 5.5 75 1.9 W 17 26 9 14 1023.1 1023.5 0.0
27/01:00pm 9.9 6.2 6.1 77 1.8 WSW 15 26 8 14 1022.9 1023.3 0.0
27/12:30pm 10.2 6.3 5.4 72 2.2 WSW 15 24 8 13 1023.1 1023.5 0.0
27/12:00pm 9.6 4.8 5.4 75 1.9 WSW 20 30 11 16 1023.2 1023.6 0.0
27/11:30am 9.7 5.7 5.1 73 2.1 WSW 15 26 8 14 1023.1 1023.5 0.0
27/11:00am 9.8 6.1 4.6 70 2.4 WSW 13 19 7 10 1022.6 1023.0 0.0
27/10:30am 9.6 5.1 4.4 70 2.3 SW 17 24 9 13 1022.4 1022.8 0.0
27/10:00am 9.3 5.3 4.9 74 2.0 SW 15 28 8 15 1022.2 1022.6 0.0
27/09:30am 8.8 5.3 5.4 79 1.6 SW 13 19 7 10 1021.7 1022.1 0.0
27/09:00am 8.3 4.0 5.1 80 1.4 SSW 17 30 9 16 1021.2 1021.6 15.2
27/08:30am 8.3 3.4 4.3 76 1.8 SSW 19 26 10 14 1020.9 1021.2 15.2
27/08:00am 8.3 3.3 4.7 78 1.6 SW 20 30 11 16 1020.2 1020.6 15.2
27/07:30am 8.2 3.7 4.2 76 1.8 SW 17 26 9 14 1019.6 1020.0 15.2
27/07:00am 7.8 3.7 4.4 79 1.5 SSW 15 20 8 11 1019.0 1019.4 15.2
27/06:30am 7.7 2.4 4.8 82 1.3 SSW 22 30 12 16 1018.5 1018.8 15.2
27/06:00am 7.8 1.8 5.3 84 1.1 SSW 26 39 14 21 1017.9 1018.2 15.2
27/05:30am 8.0 2.2 4.2 77 1.7 SSW 24 33 13 18 1017.3 1017.6 15.2
27/05:00am 8.2 2.7 4.2 76 1.8 SSW 22 33 12 18 1016.5 1016.9 15.2
27/04:30am 8.3 2.9 4.3 76 1.8 SSW 22 33 12 18 1016.2 1016.6 15.2
27/04:00am 7.9 4.0 5.4 84 1.1 SW 15 26 8 14 1015.6 1015.9 15.2
27/03:30am 8.1 3.8 7.0 93 0.5 SW 19 30 10 16 1015.4 1015.7 15.2
27/03:00am 8.1 4.3 7.5 96 0.3 SW 17 30 9 16 1014.9 1015.2 15.2
27/02:30am 8.2 4.4 7.6 96 0.3 WSW 17 39 9 21 1014.5 1014.8 15.2
27/02:00am 8.3 4.0 8.0 98 0.1 WSW 20 33 11 18 1013.8 1014.2 15.2
27/01:30am 8.1 4.4 7.8 98 0.1 W 17 32 9 17 1013.4 1013.7 15.0
27/01:00am 8.1 3.0 7.5 96 0.3 W 24 46 13 25 1013.0 1013.3 14.6
27/12:54am 8.2 3.5 7.6 96 0.3 W 22 46 12 25 1012.7 1013.0 14.6
27/12:30am 7.8 4.7 7.4 97 0.2 WNW 13 19 7 10 1012.4 1012.7 14.6
27/12:00am 7.8 3.9 7.2 96 0.3 W 17 28 9 15 1012.2 1012.5 14.6
 
Date/Time
CST
Temp
°C
App
Temp
°C
Dew
Point
°C
Rel
Hum
%
Delta-T
°C
Wind Press
QNH
hPa
Press
MSL
hPa
Rain since
9am
mm
Dir  Spd
km/h
Gust
km/h
Spd
kts
Gust
kts
26/11:30pm 8.2 4.1 7.8 97 0.2 W 19 32 10 17 1011.7 1012.0 14.4
26/11:00pm 8.2 3.8 7.4 95 0.4 W 20 37 11 20 1011.3 1011.6 13.8
26/10:30pm 8.4 2.9 7.6 95 0.4 W 26 39 14 21 1010.9 1011.2 13.8
26/10:00pm 8.1 4.3 7.5 96 0.3 WNW 17 28 9 15 1010.4 1010.7 13.8
26/09:30pm 8.3 3.4 6.8 90 0.7 W 22 35 12 19 1010.0 1010.3 13.6
26/09:00pm 8.4 3.9 7.0 91 0.7 W 20 28 11 15 1009.6 1009.9 13.6
26/08:30pm 8.5 4.0 6.8 89 0.8 W 20 30 11 16 1008.8 1009.1 13.6
26/08:00pm 8.6 3.7 6.7 88 0.9 W 22 33 12 18 1008.1 1008.3 13.6
26/07:30pm 8.6 2.6 7.1 90 0.7 W 28 41 15 22 1007.4 1007.7 13.6
26/07:12pm 8.6 2.6 6.9 89 0.8 W 28 46 15 25 1007.1 1007.4 13.6
26/07:00pm 8.5 2.1 6.8 89 0.8 W 30 43 16 23 1006.9 1007.2 13.6
26/06:32pm 8.6 1.9 7.2 91 0.7 W 32 52 17 28 1006.5 1006.8 13.6
26/06:30pm 8.5 2.1 7.1 91 0.7 W 30 44 16 24 1006.3 1006.6 13.6
26/06:00pm 8.3 2.8 7.5 95 0.4 W 26 39 14 21 1005.6 1005.8 13.6
26/05:30pm 8.4 3.8 8.1 98 0.1 WNW 22 39 12 21 1005.6 1005.8 13.4
26/05:00pm 8.2 0.7 7.8 97 0.2 W 37 61 20 33 1005.0 1005.2 13.4
26/04:58pm 8.2 0.7 7.9 98 0.1 W 37 61 20 33 1005.0 1005.2 13.4
26/04:37pm 8.6 3.0 8.6 100 0.0 NW 28 57 15 31 1003.8 1004.0 8.0
26/04:30pm 8.3 3.7 8.2 99 0.0 NNW 22 48 12 26 1003.2 1003.4 6.8
26/04:00pm 8.1 1.3 7.8 98 0.1 NNW 33 56 18 30 1004.2 1004.5 3.6
26/03:36pm 8.3 2.6 8.2 99 0.0 NW 28 48 15 26 1005.2 1005.4 3.4
26/03:30pm 8.1 3.1 8.0 99 0.0 NW 24 46 13 25 1004.4 1004.7 3.4
26/03:00pm 8.1 0.5 7.7 97 0.2 NW 37 59 20 32 1006.4 1006.7 2.4
26/02:30pm 8.0 0.7 7.2 95 0.4 NW 35 56 19 30 1007.0 1007.3 1.6
26/02:01pm 8.6 1.8 7.1 90 0.7 NNW 32 54 17 29 1007.4 1007.7 0.2
26/02:00pm 8.6 2.2 7.1 90 0.7 NNW 30 48 16 26 1007.4 1007.7 0.0

Other Formats:

Comma delimited format used in spreadsheet applications
http://www.bom.gov.au/fwo/IDS60801/IDS60801.94811.axf

JavaScript Object Notation format (JSON) in row-major order
http://www.bom.gov.au/fwo/IDS60801/IDS60801.94811.json